Time,TemperatureF,DewpointF,PressureIn,WindDirection,WindDirectionDegrees,WindSpeedMPH,WindSpeedGustMPH,Humidity,HourlyPrecipIn,Conditions,Clouds,dailyrainin,SolarRadiationWatts/m^2,SoftwareType,DateUTC
2013-08-12 00:01:00,66.0,46.0,-100.00,West,280,14.0,24.0,49,0.00,,,0.00,0.000000,,2013-08-12 07:01:00,
2013-08-12 00:02:00,66.0,47.0,-100.00,West,272,14.0,23.0,50,0.00,,,0.00,0.000000,,2013-08-12 07:02:00,
2013-08-12 00:22:00,66.0,47.0,-100.00,West,272,14.0,23.0,50,0.00,,,0.00,0.000000,,2013-08-12 07:22:00,
2013-08-12 00:33:00,66.0,47.0,-100.00,West,272,14.0,23.0,50,0.00,,,0.00,0.000000,,2013-08-12 07:33:00,
2013-08-12 00:43:00,66.0,47.0,-100.00,West,272,14.0,23.0,50,0.00,,,0.00,0.000000,,2013-08-12 07:43:00,
2013-08-12 00:52:00,66.0,47.0,-100.00,West,272,14.0,23.0,50,0.00,,,0.00,0.000000,,2013-08-12 07:52:00,
2013-08-12 01:02:00,66.0,45.0,-100.00,West,277,15.0,22.0,47,0.00,,,0.00,0.000000,,2013-08-12 08:02:00,
2013-08-12 01:33:00,66.0,45.0,-100.00,West,277,15.0,22.0,47,0.00,,,0.00,0.000000,,2013-08-12 08:33:00,
2013-08-12 01:43:00,66.0,45.0,-100.00,West,277,15.0,22.0,47,0.00,,,0.00,0.000000,,2013-08-12 08:43:00,
2013-08-12 01:53:00,66.0,45.0,-100.00,West,277,15.0,22.0,47,0.00,,,0.00,0.000000,,2013-08-12 08:53:00,
2013-08-12 02:32:00,66.0,44.0,-100.00,West,269,0.0,20.0,45,0.00,,,-99.99,0.000000,,2013-08-12 09:32:00,
2013-08-12 02:43:00,66.0,44.0,-100.00,West,269,0.0,20.0,45,0.00,,,-99.99,0.000000,,2013-08-12 09:43:00,
2013-08-12 02:53:00,66.0,44.0,-100.00,West,269,0.0,20.0,45,0.00,,,-99.99,0.000000,,2013-08-12 09:53:00,
2013-08-12 03:01:00,66.0,44.0,-100.00,West,269,0.0,20.0,45,0.00,,,-99.99,0.000000,,2013-08-12 10:01:00,
2013-08-12 03:32:00,66.0,44.0,-100.00,West,276,0.0,0.0,45,0.00,,,0.00,0.000000,,2013-08-12 10:32:00,
2013-08-12 03:43:00,66.0,44.0,-100.00,West,276,0.0,0.0,45,0.00,,,0.00,0.000000,,2013-08-12 10:43:00,
2013-08-12 03:52:00,66.0,44.0,-100.00,West,276,0.0,0.0,45,0.00,,,0.00,0.000000,,2013-08-12 10:52:00,
2013-08-12 04:32:00,67.0,41.0,-100.00,West,276,0.0,0.0,38,0.00,,,0.00,0.000000,,2013-08-12 11:32:00,
2013-08-12 04:42:00,67.0,41.0,-100.00,West,276,0.0,0.0,38,0.00,,,0.00,0.000000,,2013-08-12 11:42:00,
2013-08-12 07:32:00,63.0,42.0,-100.00,WNW,283,0.0,0.0,47,-99.99,,,0.00,23.000000,,2013-08-12 14:32:00,
2013-08-12 08:33:00,66.0,42.0,-100.00,WNW,282,0.0,0.0,41,0.00,,,0.00,179.000000,,2013-08-12 15:33:00,
2013-08-12 08:43:00,66.0,42.0,-100.00,WNW,282,0.0,0.0,41,0.00,,,0.00,179.000000,,2013-08-12 15:43:00,
2013-08-12 08:52:00,66.0,42.0,-100.00,WNW,282,0.0,0.0,41,0.00,,,0.00,179.000000,,2013-08-12 15:52:00,
2013-08-12 09:01:00,66.0,42.0,-100.00,WNW,282,0.0,0.0,41,0.00,,,0.00,179.000000,,2013-08-12 16:01:00,
2013-08-12 12:02:00,80.0,42.0,-100.00,West,263,6.0,14.0,26,0.00,,,0.00,866.000000,,2013-08-12 19:02:00,
2013-08-12 12:33:00,80.0,42.0,-100.00,West,263,6.0,14.0,26,0.00,,,0.00,866.000000,,2013-08-12 19:33:00,
2013-08-12 12:43:00,80.0,42.0,-100.00,West,263,6.0,14.0,26,0.00,,,0.00,866.000000,,2013-08-12 19:43:00,
2013-08-12 12:52:00,80.0,42.0,-100.00,West,263,6.0,14.0,26,0.00,,,0.00,866.000000,,2013-08-12 19:52:00,
2013-08-12 13:32:00,81.0,39.0,-100.00,West,273,8.0,15.0,22,0.00,,,0.00,937.000000,,2013-08-12 20:32:00,
2013-08-12 13:42:00,81.0,39.0,-100.00,West,273,8.0,15.0,22,0.00,,,0.00,937.000000,,2013-08-12 20:42:00,
2013-08-12 13:52:00,81.0,39.0,-100.00,West,273,8.0,15.0,22,0.00,,,0.00,937.000000,,2013-08-12 20:52:00,
2013-08-12 14:01:00,81.0,39.0,-100.00,West,273,8.0,15.0,22,0.00,,,0.00,937.000000,,2013-08-12 21:01:00,
2013-08-12 14:32:00,82.0,43.0,-100.00,West,266,8.0,17.0,25,0.00,,,0.00,956.000000,,2013-08-12 21:32:00,
2013-08-12 14:43:00,82.0,43.0,-100.00,West,266,8.0,17.0,25,0.00,,,0.00,956.000000,,2013-08-12 21:43:00,
2013-08-12 14:52:00,82.0,43.0,-100.00,West,266,8.0,17.0,25,0.00,,,0.00,956.000000,,2013-08-12 21:52:00,
2013-08-12 15:01:00,82.0,43.0,-100.00,West,266,8.0,17.0,25,0.00,,,0.00,956.000000,,2013-08-12 22:01:00,
2013-08-12 15:32:00,83.0,39.0,-100.00,West,263,10.0,18.0,21,0.00,,,0.00,912.000000,,2013-08-12 22:32:00,
2013-08-12 15:43:00,83.0,39.0,-100.00,West,263,10.0,18.0,21,0.00,,,0.00,912.000000,,2013-08-12 22:43:00,
2013-08-12 15:53:00,83.0,39.0,-100.00,West,263,10.0,18.0,21,0.00,,,0.00,912.000000,,2013-08-12 22:53:00,
2013-08-12 16:01:00,83.0,39.0,-100.00,West,263,10.0,18.0,21,0.00,,,0.00,912.000000,,2013-08-12 23:01:00,
2013-08-12 16:02:00,84.0,41.0,-100.00,West,265,8.0,16.0,22,0.00,,,-99.99,812.000000,,2013-08-12 23:02:00,
2013-08-12 16:34:00,84.0,41.0,-100.00,West,265,8.0,16.0,22,0.00,,,-99.99,812.000000,,2013-08-12 23:34:00,
2013-08-12 16:43:00,84.0,41.0,-100.00,West,265,8.0,16.0,22,0.00,,,-99.99,812.000000,,2013-08-12 23:43:00,
2013-08-12 16:53:00,84.0,41.0,-100.00,West,265,8.0,16.0,22,0.00,,,-99.99,812.000000,,2013-08-12 23:53:00,
2013-08-12 17:02:00,82.0,41.0,-100.00,West,260,9.0,21.0,23,0.00,,,0.00,659.000000,,2013-08-13 00:02:00,
2013-08-12 17:24:00,82.0,41.0,-100.00,West,260,9.0,21.0,23,0.00,,,0.00,659.000000,,2013-08-13 00:24:00,
2013-08-12 17:35:00,82.0,41.0,-100.00,West,260,9.0,21.0,23,0.00,,,0.00,659.000000,,2013-08-13 00:35:00,
2013-08-12 17:45:00,82.0,41.0,-100.00,West,260,9.0,21.0,23,0.00,,,0.00,659.000000,,2013-08-13 00:45:00,
2013-08-12 17:53:00,82.0,41.0,-100.00,West,260,9.0,21.0,23,0.00,,,0.00,659.000000,,2013-08-13 00:53:00,
2013-08-12 18:02:00,79.0,40.0,-100.00,WSW,258,8.0,19.0,25,0.00,,,0.00,476.000000,,2013-08-13 01:02:00,
2013-08-12 18:42:00,79.0,40.0,-100.00,WSW,258,8.0,19.0,25,0.00,,,0.00,476.000000,,2013-08-13 01:42:00,
2013-08-12 18:55:00,79.0,40.0,-100.00,WSW,258,8.0,19.0,25,0.00,,,0.00,476.000000,,2013-08-13 01:55:00,
2013-08-12 19:02:00,75.0,44.0,-100.00,West,265,8.0,17.0,33,0.00,,,0.00,272.000000,,2013-08-13 02:02:00,
2013-08-12 19:43:00,75.0,44.0,-100.00,West,265,8.0,17.0,33,0.00,,,0.00,272.000000,,2013-08-13 02:43:00,
2013-08-12 19:52:00,75.0,44.0,-100.00,West,265,8.0,17.0,33,0.00,,,0.00,272.000000,,2013-08-13 02:52:00,
2013-08-12 20:02:00,68.0,43.0,-100.00,West,264,8.0,13.0,40,0.00,,,0.00,76.000000,,2013-08-13 03:02:00,
2013-08-12 20:43:00,68.0,43.0,-100.00,West,264,8.0,13.0,40,0.00,,,0.00,76.000000,,2013-08-13 03:43:00,
2013-08-12 20:54:00,68.0,43.0,-100.00,West,264,8.0,13.0,40,0.00,,,0.00,76.000000,,2013-08-13 03:54:00,
2013-08-12 21:02:00,70.0,40.0,-100.00,West,266,10.0,18.0,34,0.00,,,0.00,1.000000,,2013-08-13 04:02:00,
2013-08-12 21:42:00,70.0,40.0,-100.00,West,266,10.0,18.0,34,0.00,,,0.00,1.000000,,2013-08-13 04:42:00,
2013-08-12 21:53:00,70.0,40.0,-100.00,West,266,10.0,18.0,34,0.00,,,0.00,1.000000,,2013-08-13 04:53:00,
2013-08-12 22:42:00,69.0,40.0,-100.00,West,266,10.0,17.0,35,0.00,,,0.00,0.000000,,2013-08-13 05:42:00,
2013-08-12 22:52:00,69.0,40.0,-100.00,West,266,10.0,17.0,35,0.00,,,0.00,0.000000,,2013-08-13 05:52:00,
2013-08-12 23:01:00,69.0,40.0,-100.00,West,266,10.0,17.0,35,0.00,,,0.00,0.000000,,2013-08-13 06:01:00,
2013-08-12 23:42:00,68.0,39.0,-100.00,West,279,13.0,18.0,35,0.00,,,0.00,0.000000,,2013-08-13 06:42:00,
2013-08-12 23:52:00,68.0,39.0,-100.00,West,279,13.0,18.0,35,0.00,,,0.00,0.000000,,2013-08-13 06:52:00,